^^

Metar de toute la France(point de départ, Chateauroux, classé dans l'ordre alphabétique actualisée toutes les 30 minutes)






LFBA - Agen/, France
Distance de la station: SSO 307km
Mise à jour: 30/07/2014 17:00
partiellement nuageux
partiellement nuageux
 Wind from NNO
Vent: NNO 7 km/h
Température: 26°C
Point de Rosée: 15°C
Humidité: 51%
Baromètre: 1016 hPa
Nuages: partiellement nuageux
Visibilité: 10 km
2014/07/30 15:00 LFBA 301500Z AUTO 34004KT 270V020 9999 NSC 26/15 Q1016
LFLP - Annecy/, France
Distance de la station: ESE 352km
Mise à jour: 30/07/2014 17:00
faible pluie, Broulliard, Couvert
faible pluie, Broulliard, Couvert
 Wind from SSO
Vent: SSO 9 km/h
Température: 18°C
Point de Rosée: 16°C
Humidité: 88%
Baromètre: 1014 hPa
Récapitulatifs: faible pluie, Broulliard
Nuages: Couvert
Visibilité: 3 km
Nuages details: Couvert 213 m
2014/07/30 15:00 LFLP 301500Z AUTO 20005KT 2800 -RA BR OVC007 18/16 Q1014
 
LFOA - Avord/ , France
Distance de la station: ENE 76km
Mise à jour: 30/07/2014 17:00
partiellement nuageux
partiellement nuageux
 Wind from NO
Vent: NO 15 km/h
Température: 26°C
Point de Rosée: 15°C
Humidité: 51%
Baromètre: 1015 hPa
Nuages: partiellement nuageux
Visibilité: 10 km
Nuages details: Quelques Nuages 1494 m
partiellement nuageux 2073 m
2014/07/30 15:00 LFOA 301500Z AUTO 31008KT 260V350 9999 FEW049 SCT068 26/15 Q1015
LFSB - Bale/, France
Distance de la station: ENE 449km
Mise à jour: 30/07/2014 17:00
Light rain showers, Couvert
Light rain showers, Couvert
 Wind from NO
Vent: NO 13 km/h
Température: 21°C
Point de Rosée: 18°C
Humidité: 83%
Baromètre: 1013 hPa
Récapitulatifs: Light Rain Showers
Nuages: Couvert
Visibilité: 10 km
Nuages details: nuageux 457 m
partiellement nuageux 762 m
Quelques Nuages 792 m
Couvert 914 m
2014/07/30 15:00 LFSB 301500Z 32007KT 280V020 9999 4000N -SHRA BKN015 SCT025TCU FEW026CB OVC030 21/18 Q1013 TEMPO 4000 SHRA BKN012 SCT025TCU FEW030CB
 
LFOB - Beauvais/, France
Distance de la station: N 296km
Mise à jour: 30/07/2014 17:00
nuageux
nuageux
 Wind from NNO
Vent: NNO 19 km/h
Température: 24°C
Point de Rosée: 13°C
Humidité: 50%
Baromètre: 1015 hPa
Nuages: nuageux
Visibilité: 10 km
Nuages details: nuageux 1494 m
nuageux 1707 m
2014/07/30 15:00 LFOB 301500Z AUTO 33010KT 9999 BKN049 BKN056 24/13 Q1015
LFBE - Bergerac/, France
Distance de la station: SSO 240km
Mise à jour: 30/07/2014 17:00
partiellement nuageux
partiellement nuageux
 Wind from ONO
Vent: ONO 11 km/h
Température: 26°C
Point de Rosée: 16°C
Humidité: 54%
Baromètre: 1016 hPa
Nuages: partiellement nuageux
Visibilité: 10 km
2014/07/30 15:00 LFBE 301500Z AUTO 29006KT 240V320 9999 NSC 26/16 Q1016
 
LFMU - Beziers/, France
Distance de la station: SSE 411km
Mise à jour: 30/07/2014 17:00
partiellement nuageux
partiellement nuageux
 Wind from O
Vent: O 33 km/h
Température: 29°C
Heat Index: 29°C
Point de Rosée: 15°C
Humidité: 43%
Baromètre: 1011 hPa
Nuages: partiellement nuageux
Visibilité: 10 km
2014/07/30 15:00 LFMU 301500Z AUTO 28018KT 9999 NSC 29/15 Q1011
LFBZ - Biarritz/, France
Distance de la station: SO 449km
Mise à jour: 30/07/2014 17:00
nuageux
nuageux
 Wind from NNO
Vent: NNO 15 km/h
Température: 23°C
Point de Rosée: 16°C
Humidité: 65%
Baromètre: 1018 hPa
Nuages: nuageux
Visibilité: 10 km
Nuages details: Quelques Nuages 762 m
nuageux 2012 m
2014/07/30 15:00 LFBZ 301500Z 33008KT 290V040 9999 FEW025 BKN066 23/16 Q1018 NOSIG
 
LFBD - Bordeaux/, France
Distance de la station: SO 289km
Mise à jour: 30/07/2014 17:00
Couvert
Couvert
 Wind from NO
Vent: NO 9 km/h
Température: 25°C
Point de Rosée: 16°C
Humidité: 57%
Baromètre: 1017 hPa
Nuages: Couvert
Visibilité: 10 km
Nuages details: nuageux 1341 m
Couvert 1585 m
2014/07/30 15:00 LFBD 301500Z AUTO 31005KT 9999 BKN044 OVC052 25/16 Q1017
LFAQ - Bray/, France
Distance de la station: N 358km
Mise à jour: 30/07/2014 17:00
Couvert
Couvert
 Wind from NNO
Vent: NNO 20 km/h
Température: 24°C
Point de Rosée: 13°C
Humidité: 50%
Baromètre: 1015 hPa
Nuages: Couvert
Visibilité: 10 km
Nuages details: Couvert 1463 m
2014/07/30 15:00 LFAQ 301500Z AUTO 34011KT 9999 OVC048 24/13 Q1015
 
LFRB - Brest/, France
Distance de la station: ONO 492km
Mise à jour: 30/07/2014 17:00
Quelques Nuages
Quelques Nuages
 Wind from N
Vent: N 13 km/h
Température: 22°C
Point de Rosée: 12°C
Humidité: 53%
Baromètre: 1019 hPa
Nuages: Quelques Nuages
Visibilité: 10 km
Nuages details: Quelques Nuages 1158 m
2014/07/30 15:00 LFRB 301500Z 01007KT 330V050 9999 FEW038 22/12 Q1019 NOSIG
LFRK - Caen/, France
Distance de la station: NNO 306km
Mise à jour: 30/07/2014 17:00
Quelques Nuages
Quelques Nuages
 Wind from N
Vent: N 15 km/h
Température: 22°C
Point de Rosée: 13°C
Humidité: 57%
Baromètre: 1017 hPa
Nuages: Quelques Nuages
Visibilité: 10 km
Nuages details: Quelques Nuages 1067 m
2014/07/30 15:00 LFRK 301500Z AUTO 36008KT 330V040 9999 FEW035 22/13 Q1017
 
LFMK - Carcassonne/, France
Distance de la station: S 403km
Mise à jour: 30/07/2014 17:00
Quelques Nuages
Quelques Nuages
 Wind from O
Vent: O 24 km/h
Température: 25°C
Point de Rosée: 16°C
Humidité: 57%
Baromètre: 1015 hPa
Nuages: Quelques Nuages
Visibilité: 10 km
Nuages details: Quelques Nuages 1189 m
2014/07/30 15:00 LFMK 301500Z AUTO 28013KT 240V310 9999 FEW039 25/16 Q1015
LFMV - Caumont/, France
Distance de la station: SE 410km
Mise à jour: 30/07/2014 17:00
partiellement nuageux
partiellement nuageux
 Wind from N
Vent: N 41 km/h, Rafale: 65 km/h
Température: 27°C
Heat Index: 28°C
Point de Rosée: 16°C
Humidité: 51%
Baromètre: 1009 hPa
Nuages: partiellement nuageux
Visibilité: 10 km
2014/07/30 15:00 LFMV 301500Z AUTO 35022G35KT 320V020 9999 NSC 27/16 Q1009
 
LFBC - Cazaux/, France
Distance de la station: SO 336km
Mise à jour: 30/07/2014 17:00
partiellement nuageux
partiellement nuageux
 Wind from NO
Vent: NO 17 km/h
Température: 25°C
Point de Rosée: 15°C
Humidité: 54%
Baromètre: 1017 hPa
Nuages: partiellement nuageux
Visibilité: 10 km
2014/07/30 15:00 LFBC 301500Z AUTO 31009KT 270V340 9999 NSC 25/15 Q1017
LFPC - Creil/, France
Distance de la station: NNE 278km
Mise à jour: 30/07/2014 17:00
nuageux
nuageux
 Wind from N
Vent: N 7 km/h
Température: 24°C
Point de Rosée: 14°C
Humidité: 54%
Baromètre: 1015 hPa
Nuages: nuageux
Visibilité: 10 km
Nuages details: Quelques Nuages 1463 m
nuageux 1829 m
nuageux 2134 m
2014/07/30 15:00 LFPC 301500Z AUTO 01004KT 320V110 9999 FEW048 BKN060 BKN070 24/14 Q1015
 
LFLB - Chambery/, France
Distance de la station: ESE 348km
Mise à jour: 30/07/2014 17:00
nuageux
nuageux
 Wind from NNO
Vent: NNO 7 km/h
Température: 18°C
Point de Rosée: 17°C
Humidité: 94%
Baromètre: 1014 hPa
Nuages: nuageux
Visibilité: 8 km
Nuages details: partiellement nuageux 305 m
nuageux 1006 m
2014/07/30 15:00 LFLB 301500Z 34004KT 8000 SCT010 BKN033 18/17 Q1014 TEMPO -RA
LFOK - Chalons/, France
Distance de la station: NE 287km
Mise à jour: 30/07/2014 17:00
Couvert
Couvert
 Wind from N
Vent: N 20 km/h
Température: 22°C
Point de Rosée: 15°C
Humidité: 65%
Baromètre: 1015 hPa
Nuages: Couvert
Visibilité: 10 km
Nuages details: Quelques Nuages 1280 m
Couvert 2012 m
2014/07/30 15:00 LFOK 301500Z AUTO 36011KT 9999 FEW042 OVC066 22/15 Q1015
 
LFOC - Chateaudun/, France
Distance de la station: N 137km
Mise à jour: 30/07/2014 17:00
nuageux
nuageux
 Wind from NNO
Vent: NNO 7 km/h
Température: 25°C
Point de Rosée: 15°C
Humidité: 54%
Baromètre: 1015 hPa
Nuages: nuageux
Visibilité: 10 km
Nuages details: Quelques Nuages 1463 m
nuageux 2256 m
2014/07/30 15:00 LFOC 301500Z AUTO 33004KT 270V360 9999 FEW048 BKN074 25/15 Q1015
LFLX - Chateauroux/, France
Distance de la station: NE 4km
Mise à jour: 30/07/2014 17:00
clair
clair
 Wind from variable
Vent: variable 6 km/h
Température: 25°C
Point de Rosée: 14°C
Humidité: 51%
Baromètre: 1016 hPa
Récapitulatifs: clair
Visibilité: supérieure à 10 km
2014/07/30 15:00 LFLX 301500Z VRB03KT CAVOK 25/14 Q1016 NOSIG
 
LFPG - Charles De Gaulle/, France
Distance de la station: NNE 252km
Mise à jour: 30/07/2014 17:00
partiellement nuageux
partiellement nuageux
 Wind from NO
Vent: NO 9 km/h
Température: 25°C
Point de Rosée: 13°C
Humidité: 47%
Baromètre: 1015 hPa
Nuages: partiellement nuageux
Visibilité: 10 km
Nuages details: Quelques Nuages 1341 m
partiellement nuageux 2134 m
2014/07/30 15:00 LFPG 301500Z 31005KT 260V360 9999 FEW044 SCT070 25/13 Q1015 NOSIG
LFRC - Cherbourg/, France
Distance de la station: NO 390km
Mise à jour: 30/07/2014 17:00
partiellement nuageux
partiellement nuageux
 Wind from ONO
Vent: ONO 11 km/h
Température: 20°C
Point de Rosée: 11°C
Humidité: 56%
Baromètre: 1018 hPa
Nuages: partiellement nuageux
Visibilité: 10 km
2014/07/30 15:00 LFRC 301500Z AUTO 30006KT 260V350 9999 NSC 20/11 Q1018
 
LFLC - Clermont/, France
Distance de la station: SE 163km
Mise à jour: 30/07/2014 17:00
nuageux
nuageux
 Wind from N
Vent: N 15 km/h
Température: 23°C
Point de Rosée: 14°C
Humidité: 57%
Baromètre: 1016 hPa
Nuages: nuageux
Visibilité: 10 km
Nuages details: Quelques Nuages 1006 m
nuageux 1402 m
2014/07/30 15:00 LFLC 301500Z 35008KT 320V030 9999 FEW033 BKN046 23/14 Q1016 NOSIG
LFBG - Cognac/, France
Distance de la station: SO 200km
Mise à jour: 30/07/2014 17:00
partiellement nuageux
partiellement nuageux
 Wind from NNO
Vent: NNO 15 km/h
Température: 27°C
Point de Rosée: 10°C
Humidité: 34%
Baromètre: 1016 hPa
Nuages: partiellement nuageux
Visibilité: 10 km
2014/07/30 15:00 LFBG 301500Z AUTO 33008KT 270V020 9999 NSC 27/10 Q1016
 
LFBY - Dax/, France
Distance de la station: SSO 411km
Mise à jour: 30/07/2014 16:00
nuageux
nuageux
 Wind from O
Vent: O 6 km/h
Température: 24°C
Point de Rosée: 16°C
Humidité: 61%
Baromètre: 1017 hPa
Nuages: nuageux
Visibilité: 10 km
Nuages details: partiellement nuageux 1006 m
nuageux 1829 m
nuageux 2835 m
2014/07/30 14:00 LFBY 301400Z 27003KT 210V320 9999 SCT033 BKN060 BKN093 24/16 Q1017
LFSD - Dijon/, France
Distance de la station: ENE 261km
Mise à jour: 30/07/2014 17:00
nuageux
nuageux
 Wind from NNO
Vent: NNO 19 km/h
Température: 23°C
Point de Rosée: 15°C
Humidité: 61%
Baromètre: 1014 hPa
Nuages: nuageux
Visibilité: 10 km
Nuages details: nuageux 1250 m
2014/07/30 15:00 LFSD 301500Z AUTO 33010KT 9999 BKN041 23/15 Q1014
 
LFRD - Dinard/, France
Distance de la station: NO 342km
Mise à jour: 30/07/2014 17:00
Quelques Nuages
Quelques Nuages
 Wind from NNO
Vent: NNO 19 km/h
Température: 21°C
Point de Rosée: 13°C
Humidité: 60%
Baromètre: 1018 hPa
Nuages: Quelques Nuages
Visibilité: 10 km
Nuages details: Quelques Nuages 640 m
2014/07/30 15:00 LFRD 301500Z AUTO 34010KT 9999 FEW021 21/13 Q1018
LFGJ - Dole/, France
Distance de la station: E 286km
Mise à jour: 30/07/2014 17:00
Quelques Nuages
Quelques Nuages
 Wind from NNO
Vent: NNO 19 km/h
Température: 23°C
Point de Rosée: 16°C
Humidité: 65%
Baromètre: 1014 hPa
Nuages: Quelques Nuages
Visibilité: 10 km
Nuages details: Quelques Nuages 975 m
2014/07/30 15:00 LFGJ 301500Z AUTO 33010KT 300V010 9999 FEW032 23/16 Q1014
 
LFOE - Evreux/, France
Distance de la station: N 247km
Mise à jour: 30/07/2014 17:00
Quelques Nuages
Quelques Nuages
 Wind from NNO
Vent: NNO 15 km/h
Température: 24°C
Point de Rosée: 13°C
Humidité: 50%
Baromètre: 1016 hPa
Nuages: Quelques Nuages
Visibilité: 10 km
Nuages details: Quelques Nuages 1311 m
2014/07/30 15:00 LFOE 301500Z AUTO 33008KT 280V040 9999 FEW043 24/13 Q1016
LFMT - Frejorgues/, France
Distance de la station: SSE 403km
Mise à jour: 30/07/2014 17:00
clair
clair
 Wind from N
Vent: N 31 km/h
Température: 31°C
Point de Rosée: 14°C
Humidité: 35%
Baromètre: 1010 hPa
Récapitulatifs: clair
Visibilité: supérieure à 10 km
2014/07/30 15:00 LFMT 301500Z 35017KT 320V020 CAVOK 31/14 Q1010 NOSIG
 
LFMI - Istres/, France
Distance de la station: SE 446km
Mise à jour: 30/07/2014 17:00
Quelques Nuages
Quelques Nuages
 Wind from NNO
Vent: NNO 57 km/h
Température: 28°C
Heat Index: 28°C
Point de Rosée: 17°C
Humidité: 51%
Baromètre: 1008 hPa
Nuages: Quelques Nuages
Visibilité: 10 km
Nuages details: Quelques Nuages 1433 m
2014/07/30 15:00 LFMI 301500Z AUTO 34031KT 9999 FEW047 28/17 Q1008
LFLS - Grenoble/, France
Distance de la station: ESE 323km
Mise à jour: 30/07/2014 17:00
Faible bruine, nuageux
Faible bruine, nuageux
 Wind from calm
Vent: Vent calme
Température: 19°C
Point de Rosée: 17°C
Humidité: 88%
Baromètre: 1014 hPa
Récapitulatifs: Light Drizzle
Nuages: nuageux
Visibilité: 9 km
Nuages details: Quelques Nuages 366 m
nuageux 945 m
nuageux 1128 m
2014/07/30 15:00 LFLS 301500Z AUTO 00000KT 9000 -DZ FEW012 BKN031 BKN037 19/17 Q1014
 
LFBH - La Rochelle/, France
Distance de la station: OSO 229km
Mise à jour: 30/07/2014 17:00
partiellement nuageux
partiellement nuageux
 Wind from ONO
Vent: ONO 28 km/h
Température: 22°C
Point de Rosée: 17°C
Humidité: 73%
Baromètre: 1017 hPa
Nuages: partiellement nuageux
Visibilité: 10 km
2014/07/30 15:00 LFBH 301500Z AUTO 30015KT 9999 NSC 22/17 Q1017
LFRI - La Roche Sur Yon/, France
Distance de la station: O 233km
Mise à jour: 30/07/2014 17:00
Couvert
Couvert
 Wind from NNO
Vent: NNO 15 km/h
Température: 22°C
Point de Rosée: 16°C
Humidité: 69%
Baromètre: 1017 hPa
Nuages: Couvert
Visibilité: 10 km
Nuages details: Quelques Nuages 823 m
Couvert 1372 m
2014/07/30 15:00 LFRI 301500Z AUTO 33008KT 9999 FEW027 OVC045 22/16 Q1017
 
LFOH - Le Havre/, France
Distance de la station: NNO 323km
Mise à jour: 30/07/2014 17:00
partiellement nuageux
partiellement nuageux
 Wind from NNO
Vent: NNO 13 km/h
Température: 19°C
Point de Rosée: 12°C
Humidité: 64%
Baromètre: 1017 hPa
Nuages: partiellement nuageux
Visibilité: 10 km
2014/07/30 15:00 LFOH 301500Z AUTO 34007KT 9999 NSC 19/12 Q1017
LFRM - Le Mans/, France
Distance de la station: NO 166km
Mise à jour: 30/07/2014 17:00
partiellement nuageux
partiellement nuageux
 Wind from O
Vent: O 11 km/h
Température: 27°C
Heat Index: 27°C
Point de Rosée: 13°C
Humidité: 42%
Baromètre: 1016 hPa
Nuages: partiellement nuageux
Visibilité: 10 km
2014/07/30 15:00 LFRM 301500Z AUTO 26006KT 220V340 9999 NSC 27/13 Q1016
 
LFRJ - Landivisiau/, France
Distance de la station: ONO 476km
Mise à jour: 30/07/2014 17:00
partiellement nuageux
partiellement nuageux
 Wind from NNE
Vent: NNE 15 km/h
Température: 21°C
Point de Rosée: 12°C
Humidité: 57%
Baromètre: 1019 hPa
Nuages: partiellement nuageux
Visibilité: 10 km
2014/07/30 15:00 LFRJ 301500Z AUTO 02008KT 330V070 9999 NSC 21/12 Q1019
LFRO - Lannion/, France
Distance de la station: ONO 441km
Mise à jour: 30/07/2014 17:00
partiellement nuageux
partiellement nuageux
 Wind from NNO
Vent: NNO 13 km/h
Température: 21°C
Point de Rosée: 11°C
Humidité: 53%
Baromètre: 1019 hPa
Nuages: partiellement nuageux
Visibilité: 10 km
2014/07/30 15:00 LFRO 301500Z AUTO 33007KT 290V020 9999 NSC 21/11 Q1019
 
LFRL - Lanveoc/, France
Distance de la station: ONO 485km
Mise à jour: 30/07/2014 17:00
nuageux
nuageux
 Wind from NNO
Vent: NNO 15 km/h
Température: 22°C
Point de Rosée: 14°C
Humidité: 61%
Baromètre: 1018 hPa
Nuages: nuageux
Visibilité: 10 km
Nuages details: nuageux 1189 m
2014/07/30 15:00 LFRL 301500Z AUTO 33008KT 9999 BKN039 22/14 Q1018
LFBL - Limoges/, France
Distance de la station: SSO 113km
Mise à jour: 30/07/2014 17:00
nuageux
nuageux
 Wind from O
Vent: O 7 km/h
Température: 23°C
Point de Rosée: 13°C
Humidité: 53%
Baromètre: 1017 hPa
Nuages: nuageux
Visibilité: 10 km
Nuages details: Quelques Nuages 1219 m
partiellement nuageux 1829 m
nuageux 7010 m
2014/07/30 15:00 LFBL 301500Z AUTO 28004KT 210V330 9999 FEW040 SCT060 BKN230 23/13 Q1017
 
LFQQ - Lille/, France
Distance de la station: NNE 430km
Mise à jour: 30/07/2014 17:00
partiellement nuageux
partiellement nuageux
 Wind from NNO
Vent: NNO 15 km/h
Température: 22°C
Point de Rosée: 14°C
Humidité: 61%
Baromètre: 1015 hPa
Nuages: partiellement nuageux
Visibilité: 10 km
Nuages details: partiellement nuageux 1097 m
partiellement nuageux 7925 m
2014/07/30 15:00 LFQQ 301500Z 33008KT 300V020 9999 SCT036 SCT260 22/14 Q1015 NOSIG
LFRH - Lorient/, France
Distance de la station: ONO 401km
Mise à jour: 30/07/2014 17:00

 Wind from O
Vent: O 24 km/h
Visibilité: 10 km
2014/07/30 15:00 LFRH 301500Z AUTO 27013KT 9999 1300 R25/P2000 R07/P2000 NSC 22/13 Q1018
 
LFLY - Lyon/, France
Distance de la station: ESE 279km
Mise à jour: 30/07/2014 17:00
Orage
Orage
 Wind from NNO
Vent: NNO 24 km/h
Température: 24°C
Point de Rosée: 16°C
Humidité: 61%
Baromètre: 1014 hPa
Nuages: Orage
Visibilité: 10 km
Nuages details: partiellement nuageux 1006 m
nuageux 1829 m
Couvert 3658 m
2014/07/30 15:00 LFLY 301500Z AUTO 33013KT 9999 SCT033/// BKN060/// OVC120/// ///TCU 24/16 Q1014
LFLL - Lyon/Satolas, France
Distance de la station: ESE 287km
Mise à jour: 30/07/2014 17:00
nuageux
nuageux
 Wind from NNO
Vent: NNO 31 km/h
Température: 23°C
Point de Rosée: 16°C
Humidité: 65%
Baromètre: 1014 hPa
Nuages: nuageux
Visibilité: 10 km
Nuages details: Quelques Nuages 671 m
nuageux 792 m
nuageux 1219 m
2014/07/30 15:00 LFLL 301500Z 34017KT 9999 FEW022TCU BKN026 BKN040 23/16 Q1014 NOSIG
 
LFSX - Luxeuil/, France
Distance de la station: ENE 366km
Mise à jour: 30/07/2014 17:00
nuageux
nuageux
 Wind from NNO
Vent: NNO 11 km/h
Température: 23°C
Point de Rosée: 17°C
Humidité: 69%
Baromètre: 1013 hPa
Nuages: nuageux
Visibilité: 10 km
Nuages details: Quelques Nuages 884 m
nuageux 3353 m
2014/07/30 15:00 LFSX 301500Z AUTO 34006KT 310V010 9999 FEW029 BKN110 23/17 Q1013
LFJR - Marce/, France
Distance de la station: NO 134km
Mise à jour: 30/07/2014 17:00
Couvert
Couvert
 Wind from NO
Vent: NO 11 km/h
Température: 25°C
Point de Rosée: 16°C
Humidité: 57%
Baromètre: 1016 hPa
Nuages: Couvert
Visibilité: 10 km
Nuages details: Quelques Nuages 1250 m
Couvert 1829 m
2014/07/30 15:00 LFJR 301500Z AUTO 32006KT 270V360 9999 FEW041 OVC060 25/16 Q1016
 
LFML - Marseille/, France
Distance de la station: SE 466km
Mise à jour: 30/07/2014 17:00
clair
clair
 Wind from NO
Vent: NO 52 km/h, Rafale: 74 km/h
Température: 28°C
Heat Index: 28°C
Point de Rosée: 16°C
Humidité: 48%
Baromètre: 1007 hPa
Récapitulatifs: clair
Visibilité: supérieure à 10 km
2014/07/30 15:00 LFML 301500Z 31028G40KT CAVOK 28/16 Q1007 NOSIG
LFPM - Melun/, France
Distance de la station: NNE 213km
Mise à jour: 30/07/2014 17:00
partiellement nuageux
partiellement nuageux
 Wind from N
Vent: N 11 km/h
Température: 24°C
Point de Rosée: 14°C
Humidité: 54%
Baromètre: 1015 hPa
Nuages: partiellement nuageux
Visibilité: 10 km
2014/07/30 15:00 LFPM 301500Z AUTO 35006KT 310V010 9999 NSC 24/14 Q1015
 
LFJL - Metz-Nancy-Lorra/, France
Distance de la station: NE 416km
Mise à jour: 30/07/2014 17:00
Couvert
Couvert
 Wind from NO
Vent: NO 13 km/h
Température: 22°C
Point de Rosée: 14°C
Humidité: 61%
Baromètre: 1014 hPa
Nuages: Couvert
Visibilité: 10 km
Nuages details: Quelques Nuages 1189 m
nuageux 1402 m
Couvert 1585 m
2014/07/30 15:00 LFJL 301500Z AUTO 31007KT 280V340 9999 FEW039 BKN046 OVC052 22/14 Q1014
LFBM - Mont-De-Marsan/, France
Distance de la station: SSO 365km
Mise à jour: 30/07/2014 17:00
nuageux
nuageux
 Wind from NNO
Vent: NNO 13 km/h
Température: 26°C
Point de Rosée: 15°C
Humidité: 51%
Baromètre: 1017 hPa
Nuages: nuageux
Visibilité: 10 km
Nuages details: Quelques Nuages 1372 m
nuageux 1768 m
2014/07/30 15:00 LFBM 301500Z AUTO 34007KT 280V030 9999 FEW045 BKN058 26/15 Q1017
 
LFSO - Nancy/, France
Distance de la station: ENE 375km
Mise à jour: 30/07/2014 17:00
nuageux
nuageux
 Wind from NNO
Vent: NNO 13 km/h
Température: 21°C
Point de Rosée: 15°C
Humidité: 69%
Baromètre: 1014 hPa
Nuages: nuageux
Visibilité: 10 km
Nuages details: Quelques Nuages 1006 m
partiellement nuageux 1219 m
nuageux 1402 m
2014/07/30 15:00 LFSO 301500Z AUTO 33007KT 9999 FEW033 SCT040 BKN046 21/15 Q1014
LFRS - Nantes/, France
Distance de la station: O 252km
Mise à jour: 30/07/2014 17:00
nuageux
nuageux
 Wind from variable
Vent: variable 7 km/h
Température: 24°C
Point de Rosée: 15°C
Humidité: 57%
Baromètre: 1017 hPa
Nuages: nuageux
Visibilité: 10 km
Nuages details: Quelques Nuages 975 m
nuageux 1494 m
2014/07/30 15:00 LFRS 301500Z VRB04KT 9999 FEW032 BKN049 24/15 Q1017 NOSIG
 
LFTW - Nimes/, France
Distance de la station: SE 402km
Mise à jour: 30/07/2014 17:00
partiellement nuageux
partiellement nuageux
 Wind from N
Vent: N 37 km/h
Température: 29°C
Point de Rosée: 13°C
Humidité: 37%
Baromètre: 1010 hPa
Nuages: partiellement nuageux
Visibilité: 10 km
2014/07/30 15:00 LFTW 301500Z AUTO 36020KT 9999 NSC 29/13 Q1010
LFMO - Orange/, France
Distance de la station: SE 387km
Mise à jour: 30/07/2014 17:00

 Wind from N
Vent: N 44 km/h, Rafale: 69 km/h
Température: 26°C
Point de Rosée: 17°C
Humidité: 58%
Baromètre: 1010 hPa
Visibilité: 10 km
2014/07/30 15:00 LFMO 301500Z AUTO 35024G37KT 9999 ////// 26/17 Q1010
 
LFOJ - Orleans/, France
Distance de la station: N 128km
Mise à jour: 30/07/2014 17:00
Couvert
Couvert
 Wind from ONO
Vent: ONO 9 km/h
Température: 25°C
Point de Rosée: 15°C
Humidité: 54%
Baromètre: 1015 hPa
Nuages: Couvert
Visibilité: 10 km
Nuages details: Quelques Nuages 1463 m
Couvert 2316 m
2014/07/30 15:00 LFOJ 301500Z AUTO 30005KT 270V340 9999 FEW048 OVC076 25/15 Q1015
LFPB - Paris/, France
Distance de la station: NNE 246km
Mise à jour: 30/07/2014 17:00
partiellement nuageux
partiellement nuageux
 Wind from variable
Vent: variable 7 km/h
Température: 26°C
Point de Rosée: 15°C
Humidité: 51%
Baromètre: 1015 hPa
Nuages: partiellement nuageux
Visibilité: 10 km
2014/07/30 15:00 LFPB 301500Z AUTO VRB04KT 9999 NSC 26/15 Q1015
 
LFPO - Paris/Orly/, France
Distance de la station: NNE 218km
Mise à jour: 30/07/2014 17:00
clair
clair
 Wind from NO
Vent: NO 13 km/h
Température: 25°C
Point de Rosée: 14°C
Humidité: 51%
Baromètre: 1015 hPa
Récapitulatifs: clair
Visibilité: supérieure à 10 km
2014/07/30 15:00 LFPO 301500Z 32007KT 280V020 CAVOK 25/14 Q1015 NOSIG
LFMP - Perpignan/, France
Distance de la station: SSE 465km
Mise à jour: 30/07/2014 17:00
Quelques Nuages
Quelques Nuages
 Wind from NO
Vent: NO 31 km/h
Température: 28°C
Heat Index: 28°C
Point de Rosée: 14°C
Humidité: 42%
Baromètre: 1013 hPa
Nuages: Quelques Nuages
Visibilité: 10 km
Nuages details: Quelques Nuages 1524 m
2014/07/30 15:00 LFMP 301500Z 31017KT 280V340 9999 FEW050 28/14 Q1013 TEMPO 32025G40KT
 
LFBI - Poitiers/, France
Distance de la station: OSO 108km
Mise à jour: 30/07/2014 17:00
partiellement nuageux
partiellement nuageux
 Wind from N
Vent: N 6 km/h
Température: 24°C
Point de Rosée: 12°C
Humidité: 47%
Baromètre: 1016 hPa
Nuages: partiellement nuageux
Visibilité: 10 km
2014/07/30 15:00 LFBI 301500Z AUTO 35003KT 310V090 9999 NSC 24/12 Q1016
LFRQ - Quimper/, France
Distance de la station: ONO 458km
Mise à jour: 30/07/2014 17:00
nuageux
nuageux
 Wind from NNO
Vent: NNO 11 km/h
Température: 23°C
Point de Rosée: 14°C
Humidité: 57%
Baromètre: 1018 hPa
Nuages: nuageux
Visibilité: 10 km
Nuages details: nuageux 1372 m
2014/07/30 15:00 LFRQ 301500Z AUTO 34006KT 300V040 9999 BKN045 23/14 Q1018
 
LFRN - Rennes/, France
Distance de la station: ONO 291km
Mise à jour: 30/07/2014 17:00
partiellement nuageux
partiellement nuageux
 Wind from N
Vent: N 13 km/h
Température: 25°C
Point de Rosée: 14°C
Humidité: 51%
Baromètre: 1017 hPa
Nuages: partiellement nuageux
Visibilité: 10 km
2014/07/30 15:00 LFRN 301500Z AUTO 35007KT 300V030 9999 NSC 25/14 Q1017
LFCR - Rodez/, France
Distance de la station: SSE 277km
Mise à jour: 30/07/2014 17:00
Couvert
Couvert
 Wind from NO
Vent: NO 24 km/h
Température: 22°C
Point de Rosée: 16°C
Humidité: 69%
Baromètre: 1017 hPa
Nuages: Couvert
Visibilité: 10 km
Nuages details: nuageux 792 m
nuageux 1036 m
Couvert 1890 m
2014/07/30 15:00 LFCR 301500Z AUTO 31013KT 270V330 9999 BKN026 BKN034 OVC062 22/16 Q1017
 
LFYR - Romorantin/, France
Distance de la station: N 56km
Mise à jour: 30/07/2014 17:00
partiellement nuageux
partiellement nuageux
 Wind from O
Vent: O 9 km/h
Température: 26°C
Point de Rosée: 12°C
Humidité: 42%
Baromètre: 1015 hPa
Nuages: partiellement nuageux
Visibilité: 10 km
2014/07/30 15:00 LFYR 301500Z AUTO 27005KT 200V350 9999 NSC 26/12 Q1015
LFOP - Rouen/, France
Distance de la station: N 286km
Mise à jour: 30/07/2014 17:00
partiellement nuageux
partiellement nuageux
 Wind from NO
Vent: NO 19 km/h
Température: 22°C
Point de Rosée: 13°C
Humidité: 57%
Baromètre: 1016 hPa
Nuages: partiellement nuageux
Visibilité: 10 km
Nuages details: partiellement nuageux 1341 m
2014/07/30 15:00 LFOP 301500Z AUTO 32010KT 280V350 9999 SCT044 22/13 Q1016
 
LFMY - Salon/, France
Distance de la station: SE 446km
Mise à jour: 30/07/2014 17:00
partiellement nuageux
partiellement nuageux
 Wind from NNO
Vent: NNO 46 km/h, Rafale: 72 km/h
Température: 27°C
Heat Index: 28°C
Point de Rosée: 17°C
Humidité: 54%
Baromètre: 1008 hPa
Nuages: partiellement nuageux
Visibilité: 10 km
2014/07/30 15:00 LFMY 301500Z AUTO 33025G39KT 280V350 9999 NSC 27/17 Q1008
LFST - Strasbourg/, France
Distance de la station: ENE 483km
Mise à jour: 30/07/2014 17:00
Orage
Orage
 Wind from NNO
Vent: NNO 15 km/h
Température: 22°C
Point de Rosée: 18°C
Humidité: 78%
Baromètre: 1012 hPa
Nuages: Orage
Visibilité: 10 km
Nuages details: nuageux 853 m
nuageux 1250 m
nuageux 2195 m
2014/07/30 15:00 LFST 301500Z AUTO 33008KT 9999 BKN028/// BKN041/// BKN072/// ///TCU 22/18 Q1012
 
LFRT - Saint-Brieuc/, France
Distance de la station: ONO 388km
Mise à jour: 30/07/2014 17:00
partiellement nuageux
partiellement nuageux
 Wind from N
Vent: N 20 km/h
Température: 21°C
Point de Rosée: 11°C
Humidité: 53%
Baromètre: 1018 hPa
Nuages: partiellement nuageux
Visibilité: 10 km
2014/07/30 15:00 LFRT 301500Z AUTO 01011KT 330V040 9999 NSC 21/11 Q1018
LFSI - St. Dizier/, France
Distance de la station: NE 313km
Mise à jour: 30/07/2014 17:00
nuageux
nuageux
 Wind from N
Vent: N 19 km/h
Température: 25°C
Point de Rosée: 14°C
Humidité: 51%
Baromètre: 1014 hPa
Nuages: nuageux
Visibilité: 10 km
Nuages details: nuageux 1463 m
nuageux 1707 m
2014/07/30 15:00 LFSI 301500Z AUTO 36010KT 9999 BKN048 BKN056 25/14 Q1014
 
LFMH - St Etienne/, France
Distance de la station: SE 247km
Mise à jour: 30/07/2014 17:00
nuageux
nuageux
 Wind from N
Vent: N 19 km/h
Température: 22°C
Point de Rosée: 16°C
Humidité: 69%
Baromètre: 1015 hPa
Nuages: nuageux
Visibilité: 10 km
Nuages details: partiellement nuageux 640 m
nuageux 1402 m
2014/07/30 15:00 LFMH 301500Z 35010KT 310V010 9999 SCT021 BKN046 22/16 Q1015 NOSIG
LFRG - St Gatien/, France
Distance de la station: NNO 305km
Mise à jour: 30/07/2014 17:00
partiellement nuageux
partiellement nuageux
 Wind from N
Vent: N 15 km/h
Température: 20°C
Point de Rosée: 12°C
Humidité: 60%
Baromètre: 1017 hPa
Nuages: partiellement nuageux
Visibilité: 10 km
2014/07/30 15:00 LFRG 301500Z AUTO 36008KT 330V030 9999 NSC 20/12 Q1017
 
LFRZ - St. Nazaire/, France
Distance de la station: ONO 297km
Mise à jour: 30/07/2014 17:00
nuageux
nuageux
 Wind from variable
Vent: variable 9 km/h
Température: 25°C
Point de Rosée: 15°C
Humidité: 54%
Baromètre: 1017 hPa
Nuages: nuageux
Visibilité: 10 km
Nuages details: nuageux 1219 m
nuageux 1494 m
2014/07/30 15:00 LFRZ 301500Z AUTO VRB05KT 9999 BKN040 BKN049 25/15 Q1017
LFLN - Saint Yan/, France
Distance de la station: ESE 184km
Mise à jour: 30/07/2014 17:00
nuageux
nuageux
 Wind from NNO
Vent: NNO 22 km/h
Température: 24°C
Point de Rosée: 15°C
Humidité: 57%
Baromètre: 1015 hPa
Nuages: nuageux
Visibilité: 10 km
Nuages details: Quelques Nuages 1372 m
nuageux 1585 m
2014/07/30 15:00 LFLN 301500Z AUTO 33012KT 9999 FEW045 BKN052 24/15 Q1015
 
LFBT - Tarbes/, France
Distance de la station: SSO 427km
Mise à jour: 30/07/2014 17:00
Couvert
Couvert
 Wind from N
Vent: N 6 km/h
Température: 22°C
Point de Rosée: 14°C
Humidité: 61%
Baromètre: 1018 hPa
Nuages: Couvert
Visibilité: 10 km
Nuages details: partiellement nuageux 1097 m
Couvert 1311 m
2014/07/30 15:00 LFBT 301500Z AUTO 01003KT 330V070 9999 SCT036 OVC043 22/14 Q1018
LFSL - Toul/, France
Distance de la station: NE 356km
Mise à jour: 30/07/2014 17:00
nuageux
nuageux
 Wind from NNO
Vent: NNO 17 km/h
Température: 24°C
Point de Rosée: 14°C
Humidité: 54%
Baromètre: 1017 hPa
Nuages: nuageux
Visibilité: 10 km
Nuages details: Quelques Nuages 1280 m
nuageux 2073 m
nuageux 7620 m
2014/07/30 15:00 LFSL 301500Z AUTO 33009KT 9999 FEW042 BKN068 BKN250 24/14 Q1017
 
LFBO - Toulouse/, France
Distance de la station: S 357km
Mise à jour: 30/07/2014 17:00
nuageux
nuageux
 Wind from ONO
Vent: ONO 11 km/h
Température: 25°C
Point de Rosée: 16°C
Humidité: 57%
Baromètre: 1016 hPa
Nuages: nuageux
Visibilité: 10 km
Nuages details: nuageux 1250 m
nuageux 1463 m
2014/07/30 15:00 LFBO 301500Z AUTO 30006KT 240V360 9999 BKN041 BKN048 25/16 Q1016
LFOT - Tours/, France
Distance de la station: NO 100km
Mise à jour: 30/07/2014 17:00
partiellement nuageux
partiellement nuageux
 Wind from NO
Vent: NO 9 km/h
Température: 27°C
Point de Rosée: 12°C
Humidité: 39%
Baromètre: 1016 hPa
Nuages: partiellement nuageux
Visibilité: 10 km
2014/07/30 15:00 LFOT 301500Z AUTO 31005KT 280V020 9999 NSC 27/12 Q1016
 
LFPN - Toussus Le Noble/, France
Distance de la station: N 217km
Mise à jour: 30/07/2014 17:00
partiellement nuageux
partiellement nuageux
 Wind from N
Vent: N 11 km/h
Température: 25°C
Point de Rosée: 15°C
Humidité: 54%
Baromètre: 1015 hPa
Nuages: partiellement nuageux
Visibilité: 10 km
2014/07/30 15:00 LFPN 301500Z AUTO 36006KT 330V030 9999 NSC 25/15 Q1015
LFPV - Villacoublay/, France
Distance de la station: N 220km
Mise à jour: 30/07/2014 17:00
partiellement nuageux
partiellement nuageux
 Wind from N
Vent: N 7 km/h
Température: 24°C
Point de Rosée: 13°C
Humidité: 50%
Baromètre: 1015 hPa
Nuages: partiellement nuageux
Visibilité: 10 km
Nuages details: Quelques Nuages 1402 m
partiellement nuageux 2134 m
2014/07/30 15:00 LFPV 301500Z AUTO 35004KT 310V060 9999 FEW046 SCT070 24/13 Q1015